Time;durP1;ratioP1;P1;durP2;ratioP2;P2;SDS_P1;SDS_P2;PMS_P1;PMS_P2;Temp;Humidity;BMP_temperature;BMP_pressure;BME280_temperature;BME280_humidity;BME280_pressure;Samples;Min_cycle;Max_cycle;Signal;HPM_P1;HPM_P2
2021/10/26 00:01:35;;;;;;;8.77;6.65;;;;;;;;;;5069162;28;20263;-81
2021/10/26 00:04:02;;;;;;;7.10;6.45;;;;;;;;;;5068140;28;20222;-81
2021/10/26 00:06:31;;;;;;;9.48;7.47;;;;;;;;;;5065639;28;20239;-81
2021/10/26 00:08:58;;;;;;;11.10;8.38;;;;;;;;;;5062867;28;20640;-81
2021/10/26 00:11:25;;;;;;;10.50;8.38;;;;;;;;;;5066080;28;20672;-81
2021/10/26 00:13:52;;;;;;;8.15;7.25;;;;;;;;;;5069184;28;20234;-81
2021/10/26 00:16:20;;;;;;;9.25;7.25;;;;;;;;;;5067394;28;20222;-81
2021/10/26 00:18:47;;;;;;;8.70;7.78;;;;;;;;;;5065529;28;20216;-81
2021/10/26 00:21:14;;;;;;;10.65;7.82;;;;;;;;;;5068948;28;20255;-81
2021/10/26 00:23:43;;;;;;;12.18;6.72;;;;;;;;;;5067466;28;20253;-81
2021/10/26 00:26:10;;;;;;;9.45;7.15;;;;;;;;;;5068399;28;20231;-81
2021/10/26 00:28:38;;;;;;;9.50;8.48;;;;;;;;;;5067160;28;20203;-82
2021/10/26 00:31:05;;;;;;;12.43;7.68;;;;;;;;;;5067968;28;20532;-82
2021/10/26 00:33:32;;;;;;;9.68;7.82;;;;;;;;;;5063001;28;20199;-81
2021/10/26 00:35:59;;;;;;;8.48;7.55;;;;;;;;;;5068373;28;20265;-81
2021/10/26 00:38:27;;;;;;;9.38;8.13;;;;;;;;;;5066675;28;20249;-81
2021/10/26 00:40:55;;;;;;;12.20;9.30;;;;;;;;;;5065405;28;20303;-81
2021/10/26 00:43:22;;;;;;;11.45;8.20;;;;;;;;;;5066640;28;20195;-81
2021/10/26 00:45:50;;;;;;;8.07;7.30;;;;;;;;;;5066730;28;20234;-81
2021/10/26 00:48:17;;;;;;;10.57;8.55;;;;;;;;;;5067855;28;20210;-81
2021/10/26 00:50:44;;;;;;;8.57;7.75;;;;;;;;;;5067221;28;20250;-81
2021/10/26 00:53:12;;;;;;;13.18;8.32;;;;;;;;;;5066638;28;20649;-81
2021/10/26 00:55:39;;;;;;;9.15;7.57;;;;;;;;;;5067406;28;20610;-81
2021/10/26 00:58:07;;;;;;;10.73;9.35;;;;;;;;;;5066248;28;20188;-81
2021/10/26 01:00:34;;;;;;;14.07;7.93;;;;;;;;;;5066439;28;20660;-81
2021/10/26 01:03:02;;;;;;;12.57;8.40;;;;;;;;;;5063907;28;20560;-82
2021/10/26 01:05:29;;;;;;;12.30;8.55;;;;;;;;;;5065651;28;20210;-81
2021/10/26 01:07:57;;;;;;;9.65;8.65;;;8.00;99.90;;;;;;5065670;28;20196;-81
2021/10/26 01:10:24;;;;;;;8.63;7.83;;;;;;;;;;5067490;28;20715;-81
2021/10/26 01:12:52;;;;;;;9.52;8.52;;;;;;;;;;5065681;28;20630;-81
2021/10/26 01:15:21;;;;;;;8.55;7.75;;;;;;;;;;5068100;28;20257;-81
2021/10/26 01:17:48;;;;;;;10.95;8.98;;;;;;;;;;5066921;28;20196;-81
2021/10/26 01:20:17;;;;;;;14.20;8.60;;;;;;;;;;5069288;28;20223;-82
2021/10/26 01:22:44;;;;;;;14.35;9.20;;;;;;;;;;5069918;28;20897;-81
2021/10/26 01:25:13;;;;;;;8.48;7.60;;;8.10;99.90;;;;;;5072647;28;20196;-81
2021/10/26 01:27:41;;;;;;;9.23;8.32;;;;;;;;;;5070069;28;20196;-81
2021/10/26 01:30:10;;;;;;;11.60;8.57;;;8.10;99.90;;;;;;5070444;28;20224;-81
2021/10/26 01:32:37;;;;;;;8.90;8.00;;;;;;;;;;5067244;28;20699;-82
2021/10/26 01:35:06;;;;;;;12.40;9.73;;;8.20;99.90;;;;;;5070885;28;20648;-81
2021/10/26 01:37:34;;;;;;;10.57;8.83;;;;;;;;;;5063384;28;20704;-80
2021/10/26 01:40:02;;;;;;;9.60;8.53;;;;;;;;;;5066936;28;20719;-80
2021/10/26 01:42:29;;;;;;;9.73;8.33;;;;;;;;;;5070621;28;20716;-80
2021/10/26 01:44:56;;;;;;;11.43;8.73;;;;;;;;;;5070185;28;20657;-81
2021/10/26 01:47:24;;;;;;;11.80;8.17;;;;;;;;;;5069969;28;20624;-81
2021/10/26 01:49:51;;;;;;;12.43;9.03;;;;;;;;;;5070385;28;20619;-81
2021/10/26 01:52:18;;;;;;;11.70;8.50;;;;;;;;;;5070661;28;20637;-81
2021/10/26 01:54:47;;;;;;;9.27;8.30;;;;;;;;;;5069705;28;20614;-81
2021/10/26 01:57:18;;;;;;;9.43;8.43;;;;;;;;;;5069579;28;20709;-81
2021/10/26 01:59:45;;;;;;;10.17;8.07;;;;;;;;;;5070973;28;20724;-81
2021/10/26 02:02:12;;;;;;;10.77;7.90;;;;;;;;;;5069284;28;20679;-81
2021/10/26 02:04:42;;;;;;;9.90;7.93;;;;;;;;;;5068778;28;20241;-81
2021/10/26 02:07:09;;;;;;;9.23;8.23;;;;;;;;;;5067318;28;20626;-81
2021/10/26 02:09:36;;;;;;;13.00;8.90;;;;;;;;;;5070747;28;20618;-81
2021/10/26 02:12:05;;;;;;;9.10;8.13;;;;;;;;;;5070439;28;20629;-80
2021/10/26 02:14:33;;;;;;;9.23;8.10;;;;;;;;;;5068058;28;20700;-80
2021/10/26 02:17:00;;;;;;;8.90;8.00;;;;;;;;;;5067994;28;20622;-80
2021/10/26 02:19:27;;;;;;;9.17;7.30;;;;;;;;;;5070433;28;20657;-80
2021/10/26 02:21:54;;;;;;;8.60;7.80;;;;;;;;;;5070590;28;21237;-80
2021/10/26 02:24:21;;;;;;;12.40;9.70;;;;;;;;;;5069715;28;20675;-80
2021/10/26 02:26:49;;;;;;;9.77;8.77;;;;;;;;;;5070207;28;20709;-80
2021/10/26 02:29:17;;;;;;;11.83;8.50;;;;;;;;;;5068139;28;20680;-80
2021/10/26 02:31:45;;;;;;;9.90;8.30;;;;;;;;;;5065153;28;20658;-80
2021/10/26 02:34:12;;;;;;;10.10;8.90;;;;;;;;;;5067593;28;21238;-80
2021/10/26 02:36:39;;;;;;;9.03;8.17;;;;;;;;;;5067089;28;20634;-80
2021/10/26 02:39:07;;;;;;;8.70;7.83;;;8.70;99.90;;;;;;5070417;28;20661;-80
2021/10/26 02:41:34;;;;;;;11.60;9.00;;;;;;;;;;5065889;28;21727;-80
2021/10/26 02:44:01;;;;;;;11.73;8.60;;;;;;;;;;5067655;28;20618;-81
2021/10/26 02:46:30;;;;;;;8.30;7.50;;;;;;;;;;5069249;28;21198;-80
2021/10/26 02:48:58;;;;;;;10.90;8.10;;;8.70;99.90;;;;;;5069917;28;20733;-80
2021/10/26 02:51:25;;;;;;;11.60;7.93;;;;;;;;;;5069793;28;20622;-80
2021/10/26 02:53:52;;;;;;;13.97;8.83;;;;;;;;;;5069582;28;21025;-80
2021/10/26 02:56:20;;;;;;;10.80;9.00;;;;;;;;;;5070129;28;20622;-80
2021/10/26 02:58:48;;;;;;;10.13;8.70;;;;;;;;;;5067272;28;20622;-80
2021/10/26 03:01:15;;;;;;;10.00;7.90;;;;;;;;;;5068956;28;21136;-80
2021/10/26 03:03:43;;;;;;;9.57;8.33;;;8.70;99.90;;;;;;5068908;28;20637;-80
2021/10/26 03:06:11;;;;;;;10.57;8.10;;;;;;;;;;5068982;28;20619;-80
2021/10/26 03:08:38;;;;;;;9.63;8.63;;;;;;;;;;5065435;28;20618;-80
2021/10/26 03:11:05;;;;;;;17.43;9.30;;;8.50;99.90;;;;;;5069438;28;21148;-79
2021/10/26 03:13:33;;;;;;;15.07;9.37;;;;;;;;;;5068792;28;20957;-79
2021/10/26 03:16:00;;;;;;;10.40;9.17;;;;;;;;;;5068183;28;21042;-80
2021/10/26 03:18:27;;;;;;;9.80;8.80;;;;;;;;;;5068860;28;20668;-80
2021/10/26 03:20:57;;;;;;;10.70;9.40;;;;;;;;;;5068770;28;20690;-79
2021/10/26 03:23:25;;;;;;;10.03;8.97;;;;;;;;;;5069362;28;20637;-80
2021/10/26 03:25:52;;;;;;;11.53;8.93;;;;;;;;;;5070003;28;20704;-80
2021/10/26 03:28:20;;;;;;;10.63;8.77;;;;;;;;;;5061774;28;20721;-80
2021/10/26 03:30:48;;;;;;;9.80;8.73;;;;;;;;;;5066219;28;20607;-79
2021/10/26 03:33:15;;;;;;;15.63;10.30;;;;;;;;;;5068175;28;20732;-80
2021/10/26 03:35:42;;;;;;;13.00;8.90;;;;;;;;;;5067058;28;20729;-80
2021/10/26 03:38:11;;;;;;;12.10;8.97;;;;;;;;;;5068362;28;20669;-79
2021/10/26 03:40:38;;;;;;;11.63;9.93;;;;;;;;;;5068248;28;20799;-79
2021/10/26 03:43:06;;;;;;;13.50;10.90;;;;;;;;;;5066820;28;20733;-80
2021/10/26 03:45:35;;;;;;;11.50;10.30;;;;;;;;;;5067260;28;20610;-79
2021/10/26 03:48:02;;;;;;;10.30;8.40;;;;;;;;;;5065671;28;20622;-80
2021/10/26 03:50:29;;;;;;;12.03;10.20;;;;;;;;;;5069162;28;20645;-80
2021/10/26 03:52:56;;;;;;;14.17;10.33;;;;;;;;;;5067829;28;20713;-79
2021/10/26 03:55:25;;;;;;;13.93;10.80;;;;;;;;;;5068404;28;20987;-79
2021/10/26 03:57:52;;;;;;;11.40;9.37;;;;;;;;;;5068945;28;21212;-80
2021/10/26 04:00:19;;;;;;;12.20;10.13;;;;;;;;;;5067590;28;20685;-79
2021/10/26 04:02:50;;;;;;;12.27;9.17;;;;;;;;;;5065499;28;20618;-79
2021/10/26 04:05:21;;;;;;;12.07;10.33;;;;;;;;;;5067107;28;20945;-79
2021/10/26 04:07:54;;;;;;;13.70;10.30;;;;;;;;;;5064315;28;20670;-79
2021/10/26 04:10:31;;;;;;;13.23;8.97;;;;;;;;;;5065308;28;20638;-79
2021/10/26 04:13:02;;;;;;;10.20;8.93;;;;;;;;;;5066573;28;20667;-80
2021/10/26 04:15:30;;;;;;;13.57;8.57;;;;;;;;;;5068969;28;20668;-79
2021/10/26 04:17:57;;;;;;;11.80;9.47;;;;;;;;;;5067353;28;20629;-79
2021/10/26 04:20:24;;;;;;;13.30;9.20;;;;;;;;;;5067988;28;20614;-80
2021/10/26 04:22:51;;;;;;;10.73;8.90;;;;;;;;;;5061884;28;20646;-80
2021/10/26 04:25:19;;;;;;;10.53;8.33;;;;;;;;;;5065334;28;20713;-79
2021/10/26 04:27:46;;;;;;;16.70;9.57;;;;;;;;;;5064940;28;20721;-80
2021/10/26 04:30:14;;;;;;;12.70;9.23;;;;;;;;;;5067248;28;20645;-80
2021/10/26 04:32:42;;;;;;;9.63;8.67;;;;;;;;;;5065242;28;20693;-80
2021/10/26 04:35:10;;;;;;;11.43;8.83;;;;;;;;;;5067109;28;20642;-80
2021/10/26 04:37:37;;;;;;;11.10;9.20;;;;;;;;;;5068662;28;20630;-79
2021/10/26 04:40:04;;;;;;;10.30;8.97;;;;;;;;;;5050528;28;20614;-79
2021/10/26 04:42:32;;;;;;;13.83;9.87;;;;;;;;;;5058433;28;20678;-80
2021/10/26 04:44:59;;;;;;;12.63;9.23;;;;;;;;;;5067752;28;20606;-80
2021/10/26 04:47:28;;;;;;;10.70;8.87;;;;;;;;;;5048644;28;20624;-80
2021/10/26 04:49:55;;;;;;;15.60;10.07;;;;;;;;;;5059048;28;20615;-80
2021/10/26 04:52:22;;;;;;;14.00;9.73;;;;;;;;;;5071545;28;20704;-80
2021/10/26 04:54:50;;;;;;;10.63;9.07;;;;;;;;;;5061271;28;20641;-79
2021/10/26 04:57:17;;;;;;;10.87;9.10;;;;;;;;;;5053354;28;20642;-80
2021/10/26 04:59:44;;;;;;;13.93;9.87;;;;;;;;;;5055030;28;20658;-80
2021/10/26 05:02:12;;;;;;;10.50;9.40;;;;;;;;;;5062620;28;21244;-80
2021/10/26 05:04:40;;;;;;;11.13;8.80;;;;;;;;;;5068685;28;20618;-80
2021/10/26 05:07:11;;;;;;;11.50;8.60;;;;;;;;;;5053312;28;20647;-80
2021/10/26 05:09:38;;;;;;;17.73;10.07;;;;;;;;;;5070110;28;20210;-80
2021/10/26 05:12:06;;;;;;;10.47;9.07;;;;;;;;;;5069001;28;20226;-80
2021/10/26 05:14:33;;;;;;;10.40;9.40;;;;;;;;;;5073637;28;20687;-80
2021/10/26 05:17:02;;;;;;;10.87;9.77;;;;;;;;;;5073142;28;20645;-80
2021/10/26 05:19:30;;;;;;;13.57;9.90;;;;;;;;;;5073532;28;20618;-80
2021/10/26 05:21:59;;;;;;;15.23;10.70;;;;;;;;;;5073341;28;21012;-80
2021/10/26 05:24:30;;;;;;;13.05;10.20;;;;;;;;;;5073055;28;20622;-79
2021/10/26 05:26:58;;;;;;;14.20;10.00;;;;;;;;;;5072947;28;20242;-80
2021/10/26 05:29:25;;;;;;;12.40;10.00;;;;;;;;;;5070224;28;20626;-79
2021/10/26 05:31:52;;;;;;;10.27;9.25;;;;;;;;;;5071838;28;20618;-80
2021/10/26 05:34:20;;;;;;;21.40;11.60;;;;;;;;;;5069651;28;20194;-80
2021/10/26 05:36:47;;;;;;;12.50;11.10;;;;;;;;;;5054426;28;20693;-80
2021/10/26 05:39:16;;;;;;;16.97;10.07;;;;;;;;;;5053387;28;20631;-79
2021/10/26 05:41:43;;;;;;;11.18;9.43;;;;;;;;;;5064150;28;20719;-80
2021/10/26 05:44:10;;;;;;;11.53;9.40;;;;;;;;;;5068978;28;20239;-80
2021/10/26 05:46:37;;;;;;;12.87;9.73;;;;;;;;;;5072261;28;20701;-80
2021/10/26 05:49:04;;;;;;;11.50;9.13;;;;;;;;;;5072650;28;20679;-80
2021/10/26 05:51:32;;;;;;;12.00;9.63;;;;;;;;;;5073107;28;20626;-80
2021/10/26 05:53:59;;;;;;;14.43;10.70;;;;;;;;;;5072914;28;20624;-80
2021/10/26 05:56:27;;;;;;;14.60;10.97;;;8.20;99.90;;;;;;5072846;28;20214;-80
2021/10/26 05:58:55;;;;;;;14.13;11.30;;;;;;;;;;5072775;28;20634;-80
2021/10/26 06:01:22;;;;;;;16.27;11.65;;;;;;;;;;5072222;28;20740;-80
2021/10/26 06:03:49;;;;;;;18.80;11.43;;;;;;;;;;5072191;28;20200;-80
2021/10/26 06:06:17;;;;;;;14.53;12.00;;;;;;;;;;5072827;28;20684;-80
2021/10/26 06:08:45;;;;;;;12.40;10.60;;;;;;;;;;5053420;28;20708;-80
2021/10/26 06:11:14;;;;;;;19.27;12.25;;;;;;;;;;5052430;28;20626;-80
2021/10/26 06:13:45;;;;;;;15.93;12.40;;;;;;;;;;5051458;28;20196;-80
2021/10/26 06:16:12;;;;;;;15.03;11.47;;;;;;;;;;5052199;28;20633;-80
2021/10/26 06:18:39;;;;;;;13.43;11.30;;;;;;;;;;5051965;28;20626;-80
2021/10/26 06:21:06;;;;;;;16.35;11.07;;;;;;;;;;5052447;28;20715;-80
2021/10/26 06:23:34;;;;;;;11.87;10.50;;;;;;;;;;5052582;28;20247;-80
2021/10/26 06:26:01;;;;;;;13.10;11.43;;;8.50;99.90;;;;;;5061000;28;21006;-80
2021/10/26 06:28:28;;;;;;;13.93;12.07;;;;;;;;;;5071649;28;20290;-81
2021/10/26 06:30:57;;;;;;;13.33;11.90;;;;;;;;;;5070964;28;20701;-80
2021/10/26 06:33:24;;;;;;;14.18;12.30;;;;;;;;;;5051916;28;20721;-80
2021/10/26 06:35:51;;;;;;;14.17;11.57;;;;;;;;;;5052275;28;20278;-80
2021/10/26 06:38:19;;;;;;;13.90;10.80;;;;;;;;;;5051418;28;20633;-80
2021/10/26 06:40:47;;;;;;;13.47;11.13;;;;;;;;;;5059300;28;20667;-80
2021/10/26 06:43:14;;;;;;;13.07;11.77;;;;;;;;;;5068424;28;21249;-81
2021/10/26 06:45:41;;;;;;;12.20;10.90;;;;;;;;;;5052011;28;21060;-80
2021/10/26 06:48:10;;;;;;;14.10;11.87;;;;;;;;;;5051366;28;20626;-81
2021/10/26 06:50:37;;;;;;;14.43;11.70;;;;;;;;;;5051748;28;20639;-81
2021/10/26 06:53:05;;;;;;;14.30;12.13;;;;;;;;;;5051284;28;21018;-81
2021/10/26 06:55:32;;;;;;;14.73;12.87;;;;;;;;;;5051199;28;20614;-81
2021/10/26 06:57:59;;;;;;;14.23;12.03;;;;;;;;;;5051337;28;20647;-80
2021/10/26 07:00:27;;;;;;;16.97;11.00;;;;;;;;;;5051746;28;21199;-81
2021/10/26 07:02:56;;;;;;;16.97;11.90;;;8.60;99.90;;;;;;5051529;28;21325;-80
2021/10/26 07:05:25;;;;;;;19.87;13.80;;;8.70;99.90;;;;;;5051513;28;20623;-81
2021/10/26 07:07:52;;;;;;;15.60;13.90;;;;;;;;;;5050747;28;20685;-80
2021/10/26 07:10:20;;;;;;;26.10;16.63;;;;;;;;;;5051134;28;20623;-80
2021/10/26 07:12:48;;;;;;;18.50;14.00;;;;;;;;;;5050751;28;20665;-80
2021/10/26 07:15:15;;;;;;;17.67;13.30;;;;;;;;;;5050512;28;21187;-80
2021/10/26 07:17:43;;;;;;;18.90;14.00;;;8.90;99.90;;;;;;5050907;28;20993;-80
2021/10/26 07:20:13;;;;;;;18.77;14.17;;;;;;;;;;5051436;28;20615;-81
2021/10/26 07:22:43;;;;;;;21.00;13.30;;;;;;;;;;5050473;28;20654;-81
2021/10/26 07:25:12;;;;;;;20.40;13.97;;;9.00;99.90;;;;;;5051316;28;20611;-80
2021/10/26 07:27:40;;;;;;;16.53;13.73;;;9.00;99.90;;;;;;5049088;28;20681;-81
2021/10/26 07:30:10;;;;;;;17.00;14.13;;;9.10;99.90;;;;;;5050543;28;20616;-81
2021/10/26 07:32:38;;;;;;;14.23;12.80;;;;;;;;;;5049474;28;21217;-81
2021/10/26 07:35:06;;;;;;;17.20;12.83;;;;;;;;;;5049456;28;20746;-80
2021/10/26 07:37:36;;;;;;;13.97;12.47;;;;;;;;;;5049658;28;20619;-81
2021/10/26 07:40:05;;;;;;;15.07;13.03;;;;;;;;;;5051893;28;20722;-81
2021/10/26 07:42:32;;;;;;;14.50;11.67;;;;;;;;;;5067589;28;21039;-81
2021/10/26 07:45:16;;;;;;;12.87;11.57;;;;;;;;;;5126430;27;21421;-81
2021/10/26 07:47:44;;;;;;;14.03;11.27;;;;;;;;;;5127036;28;20615;-81
2021/10/26 07:50:11;;;;;;;16.80;11.70;;;;;;;;;;5127819;28;20614;-81
2021/10/26 07:52:39;;;;;;;16.37;13.17;;;;;;;;;;5127954;28;20615;-81
2021/10/26 07:55:07;;;;;;;15.10;12.60;;;;;;;;;;5128062;28;20676;-81
2021/10/26 07:57:34;;;;;;;17.33;13.30;;;9.90;99.90;;;;;;5127352;28;20620;-81
2021/10/26 08:00:02;;;;;;;14.80;11.50;;;;;;;;;;5127990;28;21172;-79
2021/10/26 08:02:30;;;;;;;15.80;12.43;;;;;;;;;;5128297;28;20660;-80
2021/10/26 08:04:58;;;;;;;15.93;12.03;;;;;;;;;;5127838;28;20651;-81
2021/10/26 08:07:26;;;;;;;13.50;11.43;;;10.20;99.90;;;;;;5127521;28;20620;-81
2021/10/26 08:09:54;;;;;;;15.50;11.07;;;10.30;99.90;;;;;;5128483;28;20635;-81
2021/10/26 08:12:22;;;;;;;13.73;12.07;;;;;;;;;;5127306;28;20611;-81
2021/10/26 08:14:50;;;;;;;14.43;11.40;;;;;;;;;;5127548;28;20623;-81
2021/10/26 08:17:18;;;;;;;14.30;11.90;;;;;;;;;;5128037;28;21022;-81
2021/10/26 08:19:48;;;;;;;13.30;11.90;;;;;;;;;;5127898;28;21121;-82
2021/10/26 08:22:16;;;;;;;11.73;10.30;;;;;;;;;;5127314;28;20739;-81
2021/10/26 08:24:44;;;;;;;14.80;12.20;;;11.20;99.90;;;;;;5127434;28;20766;-81
2021/10/26 08:27:14;;;;;;;17.77;11.90;;;;;;;;;;5126631;28;20610;-81
2021/10/26 08:29:47;;;;;;;11.67;10.47;;;;;;;;;;5127534;28;20725;-80
2021/10/26 08:32:30;;;;;;;11.63;10.43;;;;;;;;;;5127681;28;20618;-81
2021/10/26 08:35:18;;;;;;;12.17;9.67;;;;;;;;;;5127254;28;20622;-81
2021/10/26 08:37:47;;;;;;;10.07;8.90;;;11.60;99.90;;;;;;5125722;28;20684;-81
2021/10/26 08:40:15;;;;;;;10.53;8.40;;;11.60;99.90;;;;;;5126229;28;20615;-82
2021/10/26 08:42:43;;;;;;;10.43;9.10;;;;;;;;;;5127455;28;20703;-82
2021/10/26 08:45:10;;;;;;;12.13;9.23;;;;;;;;;;5126873;28;20754;-82
2021/10/26 08:47:38;;;;;;;10.20;8.50;;;;;;;;;;5126559;28;20627;-82
2021/10/26 08:50:07;;;;;;;10.40;7.97;;;;;;;;;;5126732;28;20615;-82
2021/10/26 08:52:34;;;;;;;9.27;8.27;;;;;;;;;;5127253;28;20672;-82
2021/10/26 08:55:02;;;;;;;10.43;8.50;;;;;;;;;;5122292;28;20612;-82
2021/10/26 08:57:29;;;;;;;8.63;7.70;;;;;;;;;;5112905;28;20673;-82
2021/10/26 08:59:58;;;;;;;10.03;7.60;;;;;;;;;;5113370;28;21244;-82
2021/10/26 09:02:33;;;;;;;8.30;7.43;;;;;;;;;;5113306;28;20634;-82
2021/10/26 09:05:11;;;;;;;7.30;6.60;;;12.20;99.90;;;;;;5113211;28;20658;-82
2021/10/26 09:07:38;;;;;;;7.90;6.00;;;;;;;;;;5112641;28;20672;-82
2021/10/26 09:10:09;;;;;;;9.47;5.70;;;;;;;;;;5113239;28;20669;-82
2021/10/26 09:18:07;;;;;;;5.87;5.30;;;;;;;;;;5112517;28;21227;-83
2021/10/26 09:20:36;;;;;;;7.53;6.07;;;;;;;;;;5112668;28;20688;-82
2021/10/26 09:23:05;;;;;;;10.97;7.27;;;;;;;;;;5112927;28;20623;-83
2021/10/26 09:25:33;;;;;;;8.60;6.30;;;;;;;;;;5112470;28;20663;-82
2021/10/26 09:28:09;;;;;;;5.13;4.73;;;;;;;;;;5112589;28;20624;-82
2021/10/26 09:30:36;;;;;;;16.40;7.00;;;;;;;;;;5113071;28;20661;-83
2021/10/26 09:33:07;;;;;;;11.03;5.70;;;;;;;;;;5112967;28;20602;-83
2021/10/26 09:35:36;;;;;;;6.40;4.67;;;;;;;;;;5112921;28;20695;-82
2021/10/26 09:38:04;;;;;;;6.70;4.60;;;15.70;99.90;;;;;;5111585;28;20734;-83
2021/10/26 09:40:42;;;;;;;6.00;4.40;;;13.10;99.90;;;;;;5112401;28;20628;-83
2021/10/26 09:43:09;;;;;;;7.23;5.80;;;;;;;;;;5112680;28;21003;-81
2021/10/26 09:45:37;;;;;;;5.90;5.30;;;;;;;;;;5112408;28;20671;-83
2021/10/26 09:48:13;;;;;;;4.93;3.80;;;13.10;99.90;;;;;;5111901;28;20632;-83
2021/10/26 09:50:43;;;;;;;5.23;4.60;;;13.00;99.90;;;;;;5111858;28;20943;-83
2021/10/26 09:53:14;;;;;;;4.30;3.90;;;13.20;99.90;;;;;;5106508;28;20676;-82
2021/10/26 09:55:42;;;;;;;6.50;4.10;;;13.30;99.90;;;;;;5090059;28;21010;-82
2021/10/26 09:58:13;;;;;;;4.20;3.80;;;13.40;99.90;;;;;;5088959;28;21269;-83
2021/10/26 10:00:42;;;;;;;4.40;4.00;;;13.30;99.90;;;;;;5089515;28;20647;-82
2021/10/26 10:03:12;;;;;;;8.20;3.20;;;13.40;99.90;;;;;;5089811;28;20613;-82
2021/10/26 10:05:40;;;;;;;4.50;3.20;;;;;;;;;;5089071;28;20672;-82
2021/10/26 10:08:20;;;;;;;4.57;3.38;;;13.30;99.90;;;;;;5101226;28;20740;-83
2021/10/26 10:10:48;;;;;;;3.40;3.10;;;;;;;;;;5099903;28;20187;-82
2021/10/26 10:13:15;;;;;;;3.40;3.03;;;13.40;99.90;;;;;;5103073;28;20616;-82
2021/10/26 10:15:44;;;;;;;3.00;2.80;;;13.40;99.90;;;;;;5099323;28;20624;-83
2021/10/26 10:18:12;;;;;;;7.00;4.50;;;;;;;;;;5106465;28;20629;-82
2021/10/26 10:20:39;;;;;;;3.03;2.80;;;;;;;;;;5107003;28;20662;-83
2021/10/26 10:23:07;;;;;;;3.70;2.80;;;13.30;99.90;;;;;;5101532;28;20667;-83
2021/10/26 10:25:36;;;;;;;3.20;2.80;;;;;;;;;;5110170;28;20655;-83
2021/10/26 10:28:03;;;;;;;3.70;3.30;;;;;;;;;;5107395;28;20625;-83
2021/10/26 10:30:31;;;;;;;2.80;2.60;;;;;;;;;;5108691;28;20631;-83
2021/10/26 10:32:59;;;;;;;4.07;2.70;;;13.90;99.90;;;;;;5102332;28;20936;-83
2021/10/26 10:35:29;;;;;;;5.30;3.27;;;13.90;99.90;;;;;;5108447;28;20632;-84
2021/10/26 10:37:58;;;;;;;5.93;3.30;;;;;;;;;;5106593;28;20726;-83
2021/10/26 10:40:27;;;;;;;6.73;3.03;;;13.80;99.90;;;;;;5102573;28;20656;-83
2021/10/26 10:42:57;;;;;;;3.97;3.30;;;;;;;;;;5110016;28;20954;-83
2021/10/26 10:45:27;;;;;;;4.77;3.30;;;13.90;99.90;;;;;;5109243;28;20768;-84
2021/10/26 10:47:56;;;;;;;5.60;2.57;;;14.00;99.90;;;;;;5109177;28;20615;-83
2021/10/26 10:50:35;;;;;;;3.70;3.00;;;14.00;99.90;;;;;;5110185;28;20617;-83
2021/10/26 10:53:24;;;;;;;4.63;2.67;;;14.10;99.90;;;;;;5107273;28;20624;-83
2021/10/26 10:55:53;;;;;;;4.73;3.67;;;13.90;99.90;;;;;;5108669;28;20623;-83
2021/10/26 10:58:39;;;;;;;9.13;3.03;;;14.00;99.90;;;;;;5100657;28;21017;-83
2021/10/26 11:01:23;;;;;;;3.47;3.17;;;;;;;;;;5108649;28;20638;-83
2021/10/26 11:03:50;;;;;;;5.03;3.50;;;;;;;;;;5106754;28;20667;-83
2021/10/26 11:06:51;;;;;;;3.00;2.70;;;14.30;99.90;;;;;;5108490;28;20619;-83
2021/10/26 11:09:41;;;;;;;4.57;3.40;;;14.30;97.70;;;;;;5106366;28;21072;-83
2021/10/26 11:12:10;;;;;;;4.97;3.90;;;;;;;;;;5110419;28;20951;-83
2021/10/26 11:14:44;;;;;;;6.20;3.40;;;;;;;;;;5105371;28;20727;-83
2021/10/26 11:17:54;;;;;;;3.10;2.77;;;14.40;97.60;;;;;;5109611;28;21084;-83
2021/10/26 11:20:40;;;;;;;4.07;2.77;;;14.30;97.90;;;;;;5094100;28;20689;-83
2021/10/26 11:23:09;;;;;;;6.50;3.43;;;14.30;99.90;;;;;;5108152;28;20616;-83
2021/10/26 11:25:37;;;;;;;5.60;3.40;;;14.70;99.20;;;;;;5103123;28;20694;-83
2021/10/26 11:28:56;;;;;;;3.63;2.77;;;14.60;99.90;;;;;;5106947;28;20650;-83
2021/10/26 11:31:30;;;;;;;2.53;2.33;;;14.30;99.70;;;;;;5108882;28;20613;-83
2021/10/26 11:34:01;;;;;;;2.63;2.40;;;;;;;;;;5107052;28;21160;-84
2021/10/26 11:36:32;;;;;;;2.53;2.33;;;14.20;98.20;;;;;;5108141;28;20605;-83
2021/10/26 11:39:02;;;;;;;5.90;2.70;;;14.20;99.90;;;;;;5107541;28;20620;-83
2021/10/26 11:41:30;;;;;;;4.33;2.73;;;14.30;99.50;;;;;;5109658;28;21020;-83
2021/10/26 11:43:59;;;;;;;2.60;2.40;;;14.30;99.40;;;;;;5107924;28;21023;-84
2021/10/26 11:46:32;;;;;;;3.90;2.40;;;14.90;99.90;;;;;;5101988;28;20912;-83
2021/10/26 11:49:03;;;;;;;2.17;1.97;;;14.20;98.70;;;;;;5108269;28;20620;-83
2021/10/26 11:51:33;;;;;;;2.73;1.73;;;14.20;99.80;;;;;;5107110;28;20654;-83
2021/10/26 11:54:03;;;;;;;2.27;2.07;;;14.10;99.20;;;;;;5106039;28;20619;-83
2021/10/26 11:56:33;;;;;;;1.97;1.60;;;14.00;99.80;;;;;;5107882;28;20711;-83
2021/10/26 11:59:06;;;;;;;2.73;2.10;;;14.00;99.90;;;;;;5105569;28;21160;-83
2021/10/26 12:01:50;;;;;;;1.67;1.40;;;13.90;99.90;;;;;;5101200;28;20662;-82
2021/10/26 12:04:26;;;;;;;1.73;1.63;;;13.80;99.90;;;;;;5108217;28;20628;-83
2021/10/26 12:06:55;;;;;;;2.07;1.80;;;13.70;99.90;;;;;;5107205;28;20624;-82
2021/10/26 12:09:24;;;;;;;1.93;1.57;;;13.70;99.90;;;;;;5109060;28;20643;-83
2021/10/26 12:11:53;;;;;;;2.13;1.97;;;13.70;99.90;;;;;;5110045;28;20624;-83
2021/10/26 12:14:29;;;;;;;1.90;1.80;;;13.70;99.90;;;;;;5108496;28;20624;-82
2021/10/26 12:17:26;;;;;;;2.00;1.90;;;13.50;99.90;;;;;;5109233;28;20689;-83
2021/10/26 12:20:02;;;;;;;2.23;2.03;;;13.60;99.90;;;;;;5093563;28;20976;-83
2021/10/26 12:22:33;;;;;;;4.37;2.20;;;13.70;99.90;;;;;;5108792;28;20628;-83
2021/10/26 12:25:15;;;;;;;2.90;2.00;;;13.70;99.90;;;;;;5092213;28;21576;-83
2021/10/26 12:27:45;;;;;;;4.10;2.40;;;13.80;99.90;;;;;;5090143;28;20631;-83
2021/10/26 12:30:22;;;;;;;2.40;2.20;;;13.70;99.90;;;;;;5102218;28;21183;-83
2021/10/26 12:32:59;;;;;;;4.23;2.70;;;13.70;99.90;;;;;;5109358;28;20969;-82
2021/10/26 12:35:28;;;;;;;2.13;1.93;;;13.70;99.90;;;;;;5093551;28;20627;-83
2021/10/26 12:38:22;;;;;;;2.63;2.17;;;13.80;99.90;;;;;;5100162;28;20620;-82
2021/10/26 12:40:50;;;;;;;5.10;2.67;;;13.80;99.90;;;;;;5100497;28;20681;-83
2021/10/26 12:43:22;;;;;;;3.60;2.00;;;13.70;99.90;;;;;;5111796;28;20642;-83
2021/10/26 12:45:50;;;;;;;3.80;2.40;;;;;;;;;;5112474;28;20666;-82
2021/10/26 12:48:19;;;;;;;4.30;2.53;;;;;;;;;;5111458;28;20631;-83
2021/10/26 12:50:59;;;;;;;6.30;3.63;;;13.50;99.90;;;;;;5112529;28;20961;-80
2021/10/26 12:53:34;;;;;;;2.80;2.60;;;13.40;99.90;;;;;;5108781;28;20718;-81
2021/10/26 12:56:04;;;;;;;3.57;2.70;;;13.30;99.90;;;;;;5106314;28;20661;-81
2021/10/26 12:58:31;;;;;;;2.30;2.10;;;;;;;;;;5105909;28;20626;-82
2021/10/26 13:00:59;;;;;;;2.73;2.13;;;;;;;;;;5112562;28;21110;-82
2021/10/26 13:03:28;;;;;;;3.70;2.00;;;;;;;;;;5105515;28;20621;-82
2021/10/26 13:05:55;;;;;;;2.45;2.25;;;;;;;;;;5101607;28;20804;-81
2021/10/26 13:08:23;;;;;;;4.07;2.40;;;13.40;99.90;;;;;;5109740;28;20210;-81
2021/10/26 13:10:51;;;;;;;3.90;2.83;;;13.40;99.90;;;;;;5091948;28;20729;-82
2021/10/26 13:13:18;;;;;;;2.97;2.03;;;;;;;;;;5091571;28;20641;-82
2021/10/26 13:15:47;;;;;;;3.03;2.13;;;;;;;;;;5092856;28;20616;-81
2021/10/26 13:18:28;;;;;;;2.50;2.30;;;13.50;99.90;;;;;;5092337;28;20682;-81
2021/10/26 13:20:57;;;;;;;2.87;2.50;;;;;;;;;;5109996;28;20616;-81
2021/10/26 13:23:29;;;;;;;4.37;2.30;;;13.60;99.90;;;;;;5112488;28;20983;-81
2021/10/26 13:25:59;;;;;;;2.70;1.90;;;;;;;;;;5112929;28;20671;-82
2021/10/26 13:28:27;;;;;;;5.03;2.30;;;13.60;99.90;;;;;;5112114;28;20628;-81
2021/10/26 13:30:57;;;;;;;3.80;2.60;;;13.50;99.90;;;;;;5112911;28;20612;-81
2021/10/26 13:33:25;;;;;;;3.80;2.10;;;13.50;99.90;;;;;;5112080;28;20626;-81
2021/10/26 13:35:54;;;;;;;2.80;2.57;;;;;;;;;;5112719;28;21008;-81
2021/10/26 13:38:22;;;;;;;3.80;2.27;;;13.50;99.90;;;;;;5111760;28;20620;-82
2021/10/26 13:40:51;;;;;;;2.17;2.00;;;13.50;99.90;;;;;;5112183;28;21233;-82
2021/10/26 13:43:19;;;;;;;6.40;2.27;;;14.10;99.90;;;;;;5111931;28;20702;-81
2021/10/26 13:45:47;;;;;;;1.93;1.83;;;;;;;;;;5109275;28;20771;-81
2021/10/26 13:48:16;;;;;;;2.77;2.30;;;;;;;;;;5095028;28;20637;-82
2021/10/26 13:50:44;;;;;;;4.23;2.73;;;;;;;;;;5101454;28;20628;-82
2021/10/26 13:53:12;;;;;;;2.47;2.00;;;;;;;;;;5101804;28;20625;-82
2021/10/26 13:55:41;;;;;;;3.53;2.43;;;13.60;99.90;;;;;;5093596;28;20694;-82
2021/10/26 13:58:08;;;;;;;3.20;2.90;;;;;;;;;;5102345;28;20648;-81
2021/10/26 14:00:38;;;;;;;2.23;2.00;;;;;;;;;;5090013;28;20625;-81
2021/10/26 14:03:06;;;;;;;2.60;2.40;;;;;;;;;;5109189;28;20663;-82
2021/10/26 14:05:33;;;;;;;4.30;2.47;;;;;;;;;;5110337;28;20659;-81
2021/10/26 14:08:00;;;;;;;3.40;2.10;;;;;;;;;;5106352;28;20715;-81
2021/10/26 14:10:29;;;;;;;2.67;2.47;;;;;;;;;;5103460;28;20770;-81
2021/10/26 14:12:56;;;;;;;2.77;2.47;;;;;;;;;;5107891;28;20616;-81
2021/10/26 14:15:23;;;;;;;2.60;2.40;;;;;;;;;;5108915;28;20681;-81
2021/10/26 14:17:50;;;;;;;2.07;1.90;;;;;;;;;;5108371;28;20681;-81